Bonavista, Canada
Current Conditions -  °F | °C
As of 11:45 AM on Friday 28 Nov 2014 (Local Time) from CYQX Reporting Station
Overcast Overcast  
Wind Chill: 19°   Ceiling: 500
Heat Index: 28°   Visibility: 2mi
Dew Point: 27°   Wind: 10mph
Humidity: 93%   Direction: 340°NNW
Pressure: 29.83"   Gusts: 17mph
Location:  48.65°N, 53.11°W
Report Text: CYQX 281445Z 34009G15KT 2SM BKN005 OVC011 M02/M03 A2983 RMK FG3SF4SC1 PRESFR SLP110
Loading
Personal Weather Stations






























Interactive Weather Map New forecast layout! Learn more

10-Day Weather Forecast

Advertisements
Track Severe Weather on mobile